sensor_id;sensor_type;location;lat;lon;timestamp;temperature;humidity
8093;DHT22;4089;52.420;13.334;2023-11-21T00:00:14;9.20;99.90
8093;DHT22;4089;52.420;13.334;2023-11-21T00:02:41;9.20;99.90
8093;DHT22;4089;52.420;13.334;2023-11-21T00:05:09;9.20;99.90
8093;DHT22;4089;52.420;13.334;2023-11-21T00:07:37;9.20;99.90
8093;DHT22;4089;52.420;13.334;2023-11-21T00:10:04;9.30;99.90
8093;DHT22;4089;52.420;13.334;2023-11-21T00:12:37;9.30;99.90
8093;DHT22;4089;52.420;13.334;2023-11-21T00:15:05;9.40;99.90
8093;DHT22;4089;52.420;13.334;2023-11-21T00:17:32;9.30;99.90
8093;DHT22;4089;52.420;13.334;2023-11-21T00:19:59;9.30;99.90
8093;DHT22;4089;52.420;13.334;2023-11-21T00:22:26;9.20;99.90
8093;DHT22;4089;52.420;13.334;2023-11-21T00:24:52;9.00;99.90
8093;DHT22;4089;52.420;13.334;2023-11-21T00:27:19;8.80;99.90
8093;DHT22;4089;52.420;13.334;2023-11-21T00:29:47;8.70;99.90
8093;DHT22;4089;52.420;13.334;2023-11-21T00:32:14;8.50;99.90
8093;DHT22;4089;52.420;13.334;2023-11-21T00:34:40;8.40;99.90
8093;DHT22;4089;52.420;13.334;2023-11-21T00:37:09;8.40;99.90
8093;DHT22;4089;52.420;13.334;2023-11-21T00:39:36;8.30;99.90
8093;DHT22;4089;52.420;13.334;2023-11-21T00:42:03;8.20;99.90
8093;DHT22;4089;52.420;13.334;2023-11-21T00:44:31;8.00;99.90
8093;DHT22;4089;52.420;13.334;2023-11-21T00:46:58;7.90;99.90
8093;DHT22;4089;52.420;13.334;2023-11-21T00:49:25;7.80;99.90
8093;DHT22;4089;52.420;13.334;2023-11-21T00:51:51;7.90;99.90
8093;DHT22;4089;52.420;13.334;2023-11-21T00:54:18;7.80;99.90
8093;DHT22;4089;52.420;13.334;2023-11-21T00:56:45;7.70;99.90
8093;DHT22;4089;52.420;13.334;2023-11-21T00:59:14;7.60;99.90
8093;DHT22;4089;52.420;13.334;2023-11-21T01:01:40;7.50;99.90
8093;DHT22;4089;52.420;13.334;2023-11-21T01:04:07;7.50;99.90
8093;DHT22;4089;52.420;13.334;2023-11-21T01:06:34;7.60;99.90
8093;DHT22;4089;52.420;13.334;2023-11-21T01:09:01;7.70;99.90
8093;DHT22;4089;52.420;13.334;2023-11-21T01:11:27;7.70;99.90
8093;DHT22;4089;52.420;13.334;2023-11-21T01:13:54;7.60;99.90
8093;DHT22;4089;52.420;13.334;2023-11-21T01:16:21;7.50;99.90
8093;DHT22;4089;52.420;13.334;2023-11-21T01:18:48;7.50;99.90
8093;DHT22;4089;52.420;13.334;2023-11-21T01:21:15;7.50;99.90
8093;DHT22;4089;52.420;13.334;2023-11-21T01:23:42;7.50;99.90
8093;DHT22;4089;52.420;13.334;2023-11-21T01:26:09;7.50;99.90
8093;DHT22;4089;52.420;13.334;2023-11-21T01:28:36;7.50;99.90
8093;DHT22;4089;52.420;13.334;2023-11-21T01:31:03;7.40;99.90
8093;DHT22;4089;52.420;13.334;2023-11-21T01:33:29;7.20;99.90
8093;DHT22;4089;52.420;13.334;2023-11-21T01:35:56;7.10;99.90
8093;DHT22;4089;52.420;13.334;2023-11-21T01:38:23;7.10;99.90
8093;DHT22;4089;52.420;13.334;2023-11-21T01:40:50;7.10;99.90
8093;DHT22;4089;52.420;13.334;2023-11-21T01:43:17;6.90;99.90
8093;DHT22;4089;52.420;13.334;2023-11-21T01:45:44;6.80;99.90
8093;DHT22;4089;52.420;13.334;2023-11-21T01:48:14;6.80;99.90
8093;DHT22;4089;52.420;13.334;2023-11-21T01:50:43;6.80;99.90
8093;DHT22;4089;52.420;13.334;2023-11-21T01:53:12;6.80;99.90
8093;DHT22;4089;52.420;13.334;2023-11-21T01:55:43;6.80;99.90
8093;DHT22;4089;52.420;13.334;2023-11-21T01:58:12;6.80;99.90
8093;DHT22;4089;52.420;13.334;2023-11-21T02:00:43;6.90;99.90
8093;DHT22;4089;52.420;13.334;2023-11-21T02:03:10;6.90;99.90
8093;DHT22;4089;52.420;13.334;2023-11-21T02:05:37;6.90;99.90
8093;DHT22;4089;52.420;13.334;2023-11-21T02:08:04;7.00;99.90
8093;DHT22;4089;52.420;13.334;2023-11-21T02:10:31;7.00;99.90
8093;DHT22;4089;52.420;13.334;2023-11-21T02:12:58;7.00;99.90
8093;DHT22;4089;52.420;13.334;2023-11-21T02:15:26;7.00;99.90
8093;DHT22;4089;52.420;13.334;2023-11-21T02:17:55;7.00;99.90
8093;DHT22;4089;52.420;13.334;2023-11-21T02:20:25;6.90;99.90
8093;DHT22;4089;52.420;13.334;2023-11-21T02:22:56;6.70;99.90
8093;DHT22;4089;52.420;13.334;2023-11-21T02:25:29;6.60;99.90
8093;DHT22;4089;52.420;13.334;2023-11-21T02:27:57;6.60;99.90
8093;DHT22;4089;52.420;13.334;2023-11-21T02:30:24;6.50;99.90
8093;DHT22;4089;52.420;13.334;2023-11-21T02:32:55;6.50;99.90
8093;DHT22;4089;52.420;13.334;2023-11-21T02:35:24;6.40;99.90
8093;DHT22;4089;52.420;13.334;2023-11-21T02:37:53;6.40;99.90
8093;DHT22;4089;52.420;13.334;2023-11-21T02:40:20;6.30;99.90
8093;DHT22;4089;52.420;13.334;2023-11-21T02:42:48;6.30;99.90
8093;DHT22;4089;52.420;13.334;2023-11-21T02:45:15;6.40;99.90
8093;DHT22;4089;52.420;13.334;2023-11-21T02:47:44;6.30;99.90
8093;DHT22;4089;52.420;13.334;2023-11-21T02:50:11;6.30;99.90
8093;DHT22;4089;52.420;13.334;2023-11-21T02:52:38;6.30;99.90
8093;DHT22;4089;52.420;13.334;2023-11-21T02:55:07;6.30;99.90
8093;DHT22;4089;52.420;13.334;2023-11-21T02:57:34;6.30;99.90
8093;DHT22;4089;52.420;13.334;2023-11-21T03:00:01;6.30;99.90
8093;DHT22;4089;52.420;13.334;2023-11-21T03:02:27;6.40;99.90
8093;DHT22;4089;52.420;13.334;2023-11-21T03:04:54;6.40;99.90
8093;DHT22;4089;52.420;13.334;2023-11-21T03:07:21;6.40;99.90
8093;DHT22;4089;52.420;13.334;2023-11-21T03:09:48;6.40;99.90
8093;DHT22;4089;52.420;13.334;2023-11-21T03:12:15;6.50;99.90
8093;DHT22;4089;52.420;13.334;2023-11-21T03:14:42;6.50;99.90
8093;DHT22;4089;52.420;13.334;2023-11-21T03:17:09;6.40;99.90
8093;DHT22;4089;52.420;13.334;2023-11-21T03:19:36;6.40;99.90
8093;DHT22;4089;52.420;13.334;2023-11-21T03:22:03;6.30;99.90
8093;DHT22;4089;52.420;13.334;2023-11-21T03:24:30;6.30;99.90
8093;DHT22;4089;52.420;13.334;2023-11-21T03:26:57;6.30;99.90
8093;DHT22;4089;52.420;13.334;2023-11-21T03:29:25;6.30;99.90
8093;DHT22;4089;52.420;13.334;2023-11-21T03:31:52;6.30;99.90
8093;DHT22;4089;52.420;13.334;2023-11-21T03:34:26;6.30;99.90
8093;DHT22;4089;52.420;13.334;2023-11-21T03:36:54;6.30;99.90
8093;DHT22;4089;52.420;13.334;2023-11-21T03:39:21;6.30;99.90
8093;DHT22;4089;52.420;13.334;2023-11-21T03:41:49;6.30;99.90
8093;DHT22;4089;52.420;13.334;2023-11-21T03:44:15;6.40;99.90
8093;DHT22;4089;52.420;13.334;2023-11-21T03:46:42;6.40;99.90
8093;DHT22;4089;52.420;13.334;2023-11-21T03:49:10;6.30;99.90
8093;DHT22;4089;52.420;13.334;2023-11-21T03:51:37;6.20;99.90
8093;DHT22;4089;52.420;13.334;2023-11-21T03:54:04;6.20;99.90
8093;DHT22;4089;52.420;13.334;2023-11-21T03:56:31;6.10;99.90
8093;DHT22;4089;52.420;13.334;2023-11-21T03:58:58;6.10;99.90
8093;DHT22;4089;52.420;13.334;2023-11-21T04:01:25;6.20;99.90
8093;DHT22;4089;52.420;13.334;2023-11-21T04:03:52;6.20;99.90
8093;DHT22;4089;52.420;13.334;2023-11-21T04:06:19;6.20;99.90
8093;DHT22;4089;52.420;13.334;2023-11-21T04:08:46;6.00;99.90
8093;DHT22;4089;52.420;13.334;2023-11-21T04:11:12;6.00;99.90
8093;DHT22;4089;52.420;13.334;2023-11-21T04:13:40;6.00;99.90
8093;DHT22;4089;52.420;13.334;2023-11-21T04:16:08;6.00;99.90
8093;DHT22;4089;52.420;13.334;2023-11-21T04:18:36;6.00;99.90
8093;DHT22;4089;52.420;13.334;2023-11-21T04:21:07;6.00;99.90
8093;DHT22;4089;52.420;13.334;2023-11-21T04:23:35;5.90;99.90
8093;DHT22;4089;52.420;13.334;2023-11-21T04:26:02;5.90;99.90
8093;DHT22;4089;52.420;13.334;2023-11-21T04:28:29;5.90;99.90
8093;DHT22;4089;52.420;13.334;2023-11-21T04:30:56;5.70;99.90
8093;DHT22;4089;52.420;13.334;2023-11-21T04:33:23;5.70;99.90
8093;DHT22;4089;52.420;13.334;2023-11-21T04:35:50;5.70;99.90
8093;DHT22;4089;52.420;13.334;2023-11-21T04:38:17;5.70;99.90
8093;DHT22;4089;52.420;13.334;2023-11-21T04:40:45;5.70;99.90
8093;DHT22;4089;52.420;13.334;2023-11-21T04:43:12;5.60;99.90
8093;DHT22;4089;52.420;13.334;2023-11-21T04:45:39;5.80;99.90
8093;DHT22;4089;52.420;13.334;2023-11-21T04:48:08;5.80;99.90
8093;DHT22;4089;52.420;13.334;2023-11-21T04:50:35;5.80;99.90
8093;DHT22;4089;52.420;13.334;2023-11-21T04:53:02;5.70;99.90
8093;DHT22;4089;52.420;13.334;2023-11-21T04:55:29;5.80;99.90
8093;DHT22;4089;52.420;13.334;2023-11-21T04:57:56;5.70;99.90
8093;DHT22;4089;52.420;13.334;2023-11-21T05:00:22;5.70;99.90
8093;DHT22;4089;52.420;13.334;2023-11-21T05:02:50;5.70;99.90
8093;DHT22;4089;52.420;13.334;2023-11-21T05:05:17;5.80;99.90
8093;DHT22;4089;52.420;13.334;2023-11-21T05:07:44;5.80;99.90
8093;DHT22;4089;52.420;13.334;2023-11-21T05:10:11;5.80;99.90
8093;DHT22;4089;52.420;13.334;2023-11-21T05:12:40;5.80;99.90
8093;DHT22;4089;52.420;13.334;2023-11-21T05:15:08;5.80;99.90
8093;DHT22;4089;52.420;13.334;2023-11-21T05:17:39;5.90;99.90
8093;DHT22;4089;52.420;13.334;2023-11-21T05:20:11;5.80;99.90
8093;DHT22;4089;52.420;13.334;2023-11-21T05:22:39;5.80;99.90
8093;DHT22;4089;52.420;13.334;2023-11-21T05:25:07;5.80;99.90
8093;DHT22;4089;52.420;13.334;2023-11-21T05:27:35;5.80;99.90
8093;DHT22;4089;52.420;13.334;2023-11-21T05:30:03;5.80;99.90
8093;DHT22;4089;52.420;13.334;2023-11-21T05:32:35;5.80;99.90
8093;DHT22;4089;52.420;13.334;2023-11-21T05:35:02;5.80;99.90
8093;DHT22;4089;52.420;13.334;2023-11-21T05:37:29;5.80;99.90
8093;DHT22;4089;52.420;13.334;2023-11-21T05:39:56;5.70;99.90
8093;DHT22;4089;52.420;13.334;2023-11-21T05:42:23;5.80;99.90
8093;DHT22;4089;52.420;13.334;2023-11-21T05:44:50;5.70;99.90
8093;DHT22;4089;52.420;13.334;2023-11-21T05:47:17;5.70;99.90
8093;DHT22;4089;52.420;13.334;2023-11-21T05:49:45;5.60;99.90
8093;DHT22;4089;52.420;13.334;2023-11-21T05:52:17;5.70;99.90
8093;DHT22;4089;52.420;13.334;2023-11-21T05:54:44;5.60;99.90
8093;DHT22;4089;52.420;13.334;2023-11-21T05:57:11;5.70;99.90
8093;DHT22;4089;52.420;13.334;2023-11-21T05:59:38;5.60;99.90
8093;DHT22;4089;52.420;13.334;2023-11-21T06:02:04;5.60;99.90
8093;DHT22;4089;52.420;13.334;2023-11-21T06:04:31;5.60;99.90
8093;DHT22;4089;52.420;13.334;2023-11-21T06:06:58;5.50;99.90
8093;DHT22;4089;52.420;13.334;2023-11-21T06:09:27;5.50;99.90
8093;DHT22;4089;52.420;13.334;2023-11-21T06:11:54;5.60;99.90
8093;DHT22;4089;52.420;13.334;2023-11-21T06:14:21;5.50;99.90
8093;DHT22;4089;52.420;13.334;2023-11-21T06:16:48;5.50;99.90
8093;DHT22;4089;52.420;13.334;2023-11-21T06:19:17;5.50;99.90
8093;DHT22;4089;52.420;13.334;2023-11-21T06:21:48;5.40;99.90
8093;DHT22;4089;52.420;13.334;2023-11-21T06:24:15;5.50;99.90
8093;DHT22;4089;52.420;13.334;2023-11-21T06:26:42;5.50;99.90
8093;DHT22;4089;52.420;13.334;2023-11-21T06:29:10;5.30;99.90
8093;DHT22;4089;52.420;13.334;2023-11-21T06:31:37;5.50;99.90
8093;DHT22;4089;52.420;13.334;2023-11-21T06:34:04;5.50;99.90
8093;DHT22;4089;52.420;13.334;2023-11-21T06:36:31;5.50;99.90
8093;DHT22;4089;52.420;13.334;2023-11-21T06:38:58;5.50;99.90
8093;DHT22;4089;52.420;13.334;2023-11-21T06:41:25;5.50;99.90
8093;DHT22;4089;52.420;13.334;2023-11-21T06:43:51;5.40;99.90
8093;DHT22;4089;52.420;13.334;2023-11-21T06:46:19;5.40;99.90
8093;DHT22;4089;52.420;13.334;2023-11-21T06:48:46;5.50;99.90
8093;DHT22;4089;52.420;13.334;2023-11-21T06:51:15;5.50;99.90
8093;DHT22;4089;52.420;13.334;2023-11-21T06:53:42;5.40;99.90
8093;DHT22;4089;52.420;13.334;2023-11-21T06:56:16;5.40;99.90
8093;DHT22;4089;52.420;13.334;2023-11-21T06:58:44;5.50;99.90
8093;DHT22;4089;52.420;13.334;2023-11-21T07:01:13;5.50;99.90
8093;DHT22;4089;52.420;13.334;2023-11-21T07:03:40;5.50;99.90
8093;DHT22;4089;52.420;13.334;2023-11-21T07:06:08;5.50;99.90
8093;DHT22;4089;52.420;13.334;2023-11-21T07:08:35;5.50;99.90
8093;DHT22;4089;52.420;13.334;2023-11-21T07:11:02;5.40;99.90
8093;DHT22;4089;52.420;13.334;2023-11-21T07:13:30;5.40;99.90
8093;DHT22;4089;52.420;13.334;2023-11-21T07:15:58;5.50;99.90
8093;DHT22;4089;52.420;13.334;2023-11-21T07:18:25;5.40;99.90
8093;DHT22;4089;52.420;13.334;2023-11-21T07:20:52;5.40;99.90
8093;DHT22;4089;52.420;13.334;2023-11-21T07:23:20;5.30;99.90
8093;DHT22;4089;52.420;13.334;2023-11-21T07:25:49;5.20;99.90
8093;DHT22;4089;52.420;13.334;2023-11-21T07:28:16;5.20;99.90
8093;DHT22;4089;52.420;13.334;2023-11-21T07:30:43;5.30;99.90
8093;DHT22;4089;52.420;13.334;2023-11-21T07:33:10;5.20;99.90
8093;DHT22;4089;52.420;13.334;2023-11-21T07:35:37;5.20;99.90
8093;DHT22;4089;52.420;13.334;2023-11-21T07:38:04;5.20;99.90
8093;DHT22;4089;52.420;13.334;2023-11-21T07:40:30;5.20;99.90
8093;DHT22;4089;52.420;13.334;2023-11-21T07:42:58;5.20;99.90
8093;DHT22;4089;52.420;13.334;2023-11-21T07:45:26;5.20;99.90
8093;DHT22;4089;52.420;13.334;2023-11-21T07:47:54;5.20;99.90
8093;DHT22;4089;52.420;13.334;2023-11-21T07:50:22;5.20;99.90
8093;DHT22;4089;52.420;13.334;2023-11-21T07:52:49;5.20;99.90
8093;DHT22;4089;52.420;13.334;2023-11-21T07:55:16;5.20;99.90
8093;DHT22;4089;52.420;13.334;2023-11-21T07:57:43;5.20;99.90
8093;DHT22;4089;52.420;13.334;2023-11-21T08:00:11;5.20;99.90
8093;DHT22;4089;52.420;13.334;2023-11-21T08:02:40;5.20;99.90
8093;DHT22;4089;52.420;13.334;2023-11-21T08:05:09;5.20;99.90
8093;DHT22;4089;52.420;13.334;2023-11-21T08:07:50;5.20;99.90
8093;DHT22;4089;52.420;13.334;2023-11-21T08:10:17;5.30;99.90
8093;DHT22;4089;52.420;13.334;2023-11-21T08:12:44;5.20;99.90
8093;DHT22;4089;52.420;13.334;2023-11-21T08:15:12;5.30;99.90
8093;DHT22;4089;52.420;13.334;2023-11-21T08:17:38;5.30;99.90
8093;DHT22;4089;52.420;13.334;2023-11-21T08:20:06;5.30;99.90
8093;DHT22;4089;52.420;13.334;2023-11-21T08:22:35;5.30;99.90
8093;DHT22;4089;52.420;13.334;2023-11-21T08:25:02;5.20;99.90
8093;DHT22;4089;52.420;13.334;2023-11-21T08:27:31;5.20;99.90
8093;DHT22;4089;52.420;13.334;2023-11-21T08:29:58;5.20;99.90
8093;DHT22;4089;52.420;13.334;2023-11-21T08:32:27;5.20;99.90
8093;DHT22;4089;52.420;13.334;2023-11-21T08:34:54;5.20;99.90
8093;DHT22;4089;52.420;13.334;2023-11-21T08:37:21;5.20;99.90
8093;DHT22;4089;52.420;13.334;2023-11-21T08:39:48;5.20;99.90
8093;DHT22;4089;52.420;13.334;2023-11-21T08:42:16;5.40;99.90
8093;DHT22;4089;52.420;13.334;2023-11-21T08:44:43;5.20;99.90
8093;DHT22;4089;52.420;13.334;2023-11-21T08:47:10;5.40;99.90
8093;DHT22;4089;52.420;13.334;2023-11-21T08:49:36;5.30;99.90
8093;DHT22;4089;52.420;13.334;2023-11-21T08:52:04;5.30;99.90
8093;DHT22;4089;52.420;13.334;2023-11-21T08:54:32;5.30;99.90
8093;DHT22;4089;52.420;13.334;2023-11-21T08:56:59;5.30;99.90
8093;DHT22;4089;52.420;13.334;2023-11-21T08:59:26;5.30;99.90
8093;DHT22;4089;52.420;13.334;2023-11-21T09:01:53;5.20;99.90
8093;DHT22;4089;52.420;13.334;2023-11-21T09:04:20;5.20;99.90
8093;DHT22;4089;52.420;13.334;2023-11-21T09:06:47;5.30;99.90
8093;DHT22;4089;52.420;13.334;2023-11-21T09:09:13;5.20;99.90
8093;DHT22;4089;52.420;13.334;2023-11-21T09:11:40;5.30;99.90
8093;DHT22;4089;52.420;13.334;2023-11-21T09:14:07;5.30;99.90
8093;DHT22;4089;52.420;13.334;2023-11-21T09:16:35;5.30;99.90
8093;DHT22;4089;52.420;13.334;2023-11-21T09:19:02;5.40;99.90
8093;DHT22;4089;52.420;13.334;2023-11-21T09:21:32;5.40;99.90
8093;DHT22;4089;52.420;13.334;2023-11-21T09:23:59;5.40;99.90
8093;DHT22;4089;52.420;13.334;2023-11-21T09:26:26;5.30;99.90
8093;DHT22;4089;52.420;13.334;2023-11-21T09:28:53;5.30;99.90
8093;DHT22;4089;52.420;13.334;2023-11-21T09:31:20;5.10;99.90
8093;DHT22;4089;52.420;13.334;2023-11-21T09:33:49;5.10;99.90
8093;DHT22;4089;52.420;13.334;2023-11-21T09:36:16;5.20;99.90
8093;DHT22;4089;52.420;13.334;2023-11-21T09:38:43;5.20;99.90
8093;DHT22;4089;52.420;13.334;2023-11-21T09:41:19;5.20;99.90
8093;DHT22;4089;52.420;13.334;2023-11-21T09:43:52;5.20;99.90
8093;DHT22;4089;52.420;13.334;2023-11-21T09:46:23;5.20;99.90
8093;DHT22;4089;52.420;13.334;2023-11-21T09:48:52;5.20;99.90
8093;DHT22;4089;52.420;13.334;2023-11-21T09:51:20;5.20;99.90
8093;DHT22;4089;52.420;13.334;2023-11-21T09:53:50;5.20;99.90
8093;DHT22;4089;52.420;13.334;2023-11-21T09:56:19;5.20;99.90
8093;DHT22;4089;52.420;13.334;2023-11-21T09:58:53;5.20;99.90
8093;DHT22;4089;52.420;13.334;2023-11-21T10:01:21;5.30;99.90
8093;DHT22;4089;52.420;13.334;2023-11-21T10:03:50;5.20;99.90
8093;DHT22;4089;52.420;13.334;2023-11-21T10:06:18;5.10;99.90
8093;DHT22;4089;52.420;13.334;2023-11-21T10:08:46;5.10;99.90
8093;DHT22;4089;52.420;13.334;2023-11-21T10:11:24;5.10;99.90
8093;DHT22;4089;52.420;13.334;2023-11-21T10:13:55;5.10;99.90
8093;DHT22;4089;52.420;13.334;2023-11-21T10:16:26;5.00;99.90
8093;DHT22;4089;52.420;13.334;2023-11-21T10:18:54;5.10;99.90
8093;DHT22;4089;52.420;13.334;2023-11-21T10:21:38;5.20;99.90
8093;DHT22;4089;52.420;13.334;2023-11-21T10:24:06;5.20;99.90
8093;DHT22;4089;52.420;13.334;2023-11-21T10:26:34;5.30;99.90
8093;DHT22;4089;52.420;13.334;2023-11-21T10:29:16;5.20;99.90
8093;DHT22;4089;52.420;13.334;2023-11-21T10:31:43;5.20;99.90
8093;DHT22;4089;52.420;13.334;2023-11-21T10:34:16;5.30;99.90
8093;DHT22;4089;52.420;13.334;2023-11-21T10:36:43;5.30;99.90
8093;DHT22;4089;52.420;13.334;2023-11-21T10:39:16;5.20;99.90
8093;DHT22;4089;52.420;13.334;2023-11-21T10:41:45;5.10;99.90
8093;DHT22;4089;52.420;13.334;2023-11-21T10:44:17;5.10;99.90
8093;DHT22;4089;52.420;13.334;2023-11-21T10:46:52;5.00;99.90
8093;DHT22;4089;52.420;13.334;2023-11-21T10:49:24;5.00;99.90
8093;DHT22;4089;52.420;13.334;2023-11-21T10:51:52;5.10;99.90
8093;DHT22;4089;52.420;13.334;2023-11-21T10:54:20;5.10;99.90
8093;DHT22;4089;52.420;13.334;2023-11-21T10:56:53;5.10;99.90
8093;DHT22;4089;52.420;13.334;2023-11-21T10:59:23;5.10;99.90
8093;DHT22;4089;52.420;13.334;2023-11-21T11:01:52;4.90;99.90
8093;DHT22;4089;52.420;13.334;2023-11-21T11:04:20;4.80;99.90
8093;DHT22;4089;52.420;13.334;2023-11-21T11:07:00;4.90;99.90
8093;DHT22;4089;52.420;13.334;2023-11-21T11:09:31;4.90;99.90
8093;DHT22;4089;52.420;13.334;2023-11-21T11:12:04;4.80;99.90
8093;DHT22;4089;52.420;13.334;2023-11-21T11:14:32;4.70;99.90
8093;DHT22;4089;52.420;13.334;2023-11-21T11:17:01;4.70;99.90
8093;DHT22;4089;52.420;13.334;2023-11-21T11:19:29;4.70;99.90
8093;DHT22;4089;52.420;13.334;2023-11-21T11:27:29;4.60;99.90
8093;DHT22;4089;52.420;13.334;2023-11-21T11:32:54;4.70;99.90
8093;DHT22;4089;52.420;13.334;2023-11-21T11:38:09;4.70;99.90
8093;DHT22;4089;52.420;13.334;2023-11-21T11:40:41;4.60;99.90
8093;DHT22;4089;52.420;13.334;2023-11-21T11:43:11;4.70;99.90
8093;DHT22;4089;52.420;13.334;2023-11-21T11:45:38;4.60;99.90
8093;DHT22;4089;52.420;13.334;2023-11-21T11:48:11;4.60;99.90
8093;DHT22;4089;52.420;13.334;2023-11-21T11:51:10;4.50;99.90
8093;DHT22;4089;52.420;13.334;2023-11-21T11:53:43;4.50;99.90
8093;DHT22;4089;52.420;13.334;2023-11-21T11:56:29;4.40;99.90
8093;DHT22;4089;52.420;13.334;2023-11-21T11:59:04;4.50;99.90
8093;DHT22;4089;52.420;13.334;2023-11-21T12:01:33;4.40;99.90
8093;DHT22;4089;52.420;13.334;2023-11-21T12:06:47;4.40;99.90
8093;DHT22;4089;52.420;13.334;2023-11-21T12:09:22;4.50;99.90
8093;DHT22;4089;52.420;13.334;2023-11-21T12:11:49;4.40;99.90
8093;DHT22;4089;52.420;13.334;2023-11-21T12:14:16;4.50;99.90
8093;DHT22;4089;52.420;13.334;2023-11-21T12:16:44;4.50;99.90
8093;DHT22;4089;52.420;13.334;2023-11-21T12:19:11;4.40;99.90
8093;DHT22;4089;52.420;13.334;2023-11-21T12:21:39;4.50;99.90
8093;DHT22;4089;52.420;13.334;2023-11-21T12:24:07;4.50;99.90
8093;DHT22;4089;52.420;13.334;2023-11-21T12:26:41;4.40;99.90
8093;DHT22;4089;52.420;13.334;2023-11-21T12:29:09;4.50;99.90
8093;DHT22;4089;52.420;13.334;2023-11-21T12:31:37;4.40;99.90
8093;DHT22;4089;52.420;13.334;2023-11-21T12:34:04;4.40;99.90
8093;DHT22;4089;52.420;13.334;2023-11-21T12:36:34;4.50;99.90
8093;DHT22;4089;52.420;13.334;2023-11-21T12:39:02;4.40;99.90
8093;DHT22;4089;52.420;13.334;2023-11-21T12:41:29;4.40;99.90
8093;DHT22;4089;52.420;13.334;2023-11-21T12:43:57;4.40;99.90
8093;DHT22;4089;52.420;13.334;2023-11-21T12:46:24;4.50;99.90
8093;DHT22;4089;52.420;13.334;2023-11-21T12:48:56;4.30;99.90
8093;DHT22;4089;52.420;13.334;2023-11-21T12:51:24;4.30;99.90
8093;DHT22;4089;52.420;13.334;2023-11-21T12:53:52;4.30;99.90
8093;DHT22;4089;52.420;13.334;2023-11-21T12:56:21;4.40;99.90
8093;DHT22;4089;52.420;13.334;2023-11-21T12:58:50;4.30;99.90
8093;DHT22;4089;52.420;13.334;2023-11-21T13:01:19;4.20;99.90
8093;DHT22;4089;52.420;13.334;2023-11-21T13:03:50;4.20;99.90
8093;DHT22;4089;52.420;13.334;2023-11-21T13:06:18;4.10;99.90
8093;DHT22;4089;52.420;13.334;2023-11-21T13:08:46;4.20;99.90
8093;DHT22;4089;52.420;13.334;2023-11-21T13:11:13;4.20;99.90
8093;DHT22;4089;52.420;13.334;2023-11-21T13:13:42;4.20;99.90
8093;DHT22;4089;52.420;13.334;2023-11-21T13:16:13;4.30;99.90
8093;DHT22;4089;52.420;13.334;2023-11-21T13:18:40;4.50;99.90
8093;DHT22;4089;52.420;13.334;2023-11-21T13:21:09;4.50;99.90
8093;DHT22;4089;52.420;13.334;2023-11-21T13:23:38;4.40;99.90
8093;DHT22;4089;52.420;13.334;2023-11-21T13:26:07;4.40;99.90
8093;DHT22;4089;52.420;13.334;2023-11-21T13:28:36;4.40;99.90
8093;DHT22;4089;52.420;13.334;2023-11-21T13:31:05;4.40;99.90
8093;DHT22;4089;52.420;13.334;2023-11-21T13:33:50;4.40;99.90
8093;DHT22;4089;52.420;13.334;2023-11-21T13:36:23;4.30;99.90
8093;DHT22;4089;52.420;13.334;2023-11-21T13:38:51;4.30;99.90
8093;DHT22;4089;52.420;13.334;2023-11-21T13:41:22;4.40;99.90
8093;DHT22;4089;52.420;13.334;2023-11-21T13:43:57;4.50;99.90
8093;DHT22;4089;52.420;13.334;2023-11-21T13:46:33;4.40;99.90
8093;DHT22;4089;52.420;13.334;2023-11-21T13:49:05;4.40;99.90
8093;DHT22;4089;52.420;13.334;2023-11-21T13:51:37;4.20;99.90
8093;DHT22;4089;52.420;13.334;2023-11-21T13:54:08;4.20;99.90
8093;DHT22;4089;52.420;13.334;2023-11-21T13:56:37;4.30;99.90
8093;DHT22;4089;52.420;13.334;2023-11-21T13:59:05;4.10;99.90
8093;DHT22;4089;52.420;13.334;2023-11-21T14:01:50;4.20;99.90
8093;DHT22;4089;52.420;13.334;2023-11-21T14:04:24;4.10;99.90
8093;DHT22;4089;52.420;13.334;2023-11-21T14:06:57;4.00;99.90
8093;DHT22;4089;52.420;13.334;2023-11-21T14:09:27;3.90;99.90
8093;DHT22;4089;52.420;13.334;2023-11-21T14:12:02;3.90;99.90
8093;DHT22;4089;52.420;13.334;2023-11-21T14:14:33;3.90;99.90
8093;DHT22;4089;52.420;13.334;2023-11-21T14:17:00;3.90;99.90
8093;DHT22;4089;52.420;13.334;2023-11-21T14:19:33;3.80;99.90
8093;DHT22;4089;52.420;13.334;2023-11-21T14:22:03;3.80;99.90
8093;DHT22;4089;52.420;13.334;2023-11-21T14:24:30;3.90;99.90
8093;DHT22;4089;52.420;13.334;2023-11-21T14:26:58;3.90;99.90
8093;DHT22;4089;52.420;13.334;2023-11-21T14:29:26;3.80;99.90
8093;DHT22;4089;52.420;13.334;2023-11-21T14:31:54;3.90;99.90
8093;DHT22;4089;52.420;13.334;2023-11-21T14:34:24;3.90;99.90
8093;DHT22;4089;52.420;13.334;2023-11-21T14:36:51;3.80;99.90
8093;DHT22;4089;52.420;13.334;2023-11-21T14:39:17;3.60;99.90
8093;DHT22;4089;52.420;13.334;2023-11-21T14:41:54;3.60;99.90
8093;DHT22;4089;52.420;13.334;2023-11-21T14:44:23;3.60;99.90
8093;DHT22;4089;52.420;13.334;2023-11-21T14:46:53;3.50;99.90
8093;DHT22;4089;52.420;13.334;2023-11-21T14:49:24;3.50;99.90
8093;DHT22;4089;52.420;13.334;2023-11-21T14:51:54;3.40;99.90
8093;DHT22;4089;52.420;13.334;2023-11-21T14:54:28;3.30;99.90
8093;DHT22;4089;52.420;13.334;2023-11-21T14:57:15;3.20;99.90
8093;DHT22;4089;52.420;13.334;2023-11-21T14:59:49;3.30;99.90
8093;DHT22;4089;52.420;13.334;2023-11-21T15:02:19;3.40;99.90
8093;DHT22;4089;52.420;13.334;2023-11-21T15:05:10;3.20;99.90
8093;DHT22;4089;52.420;13.334;2023-11-21T15:07:43;3.30;99.90
8093;DHT22;4089;52.420;13.334;2023-11-21T15:10:13;3.30;99.90
8093;DHT22;4089;52.420;13.334;2023-11-21T15:12:42;3.20;99.90
8093;DHT22;4089;52.420;13.334;2023-11-21T15:15:11;3.20;99.90
8093;DHT22;4089;52.420;13.334;2023-11-21T15:17:38;3.20;99.90
8093;DHT22;4089;52.420;13.334;2023-11-21T15:20:10;3.10;99.90
8093;DHT22;4089;52.420;13.334;2023-11-21T15:22:39;3.00;99.90
8093;DHT22;4089;52.420;13.334;2023-11-21T15:25:06;3.00;99.90
8093;DHT22;4089;52.420;13.334;2023-11-21T15:27:37;3.10;99.90
8093;DHT22;4089;52.420;13.334;2023-11-21T15:30:04;3.10;99.90
8093;DHT22;4089;52.420;13.334;2023-11-21T15:32:31;3.00;99.90
8093;DHT22;4089;52.420;13.334;2023-11-21T15:34:58;3.10;99.90
8093;DHT22;4089;52.420;13.334;2023-11-21T15:37:25;3.10;99.90
8093;DHT22;4089;52.420;13.334;2023-11-21T15:39:54;3.10;99.90
8093;DHT22;4089;52.420;13.334;2023-11-21T15:42:21;3.10;99.90
8093;DHT22;4089;52.420;13.334;2023-11-21T15:44:50;3.10;99.90
8093;DHT22;4089;52.420;13.334;2023-11-21T15:47:17;3.20;99.90
8093;DHT22;4089;52.420;13.334;2023-11-21T15:49:45;3.10;99.90
8093;DHT22;4089;52.420;13.334;2023-11-21T15:52:16;3.00;99.90
8093;DHT22;4089;52.420;13.334;2023-11-21T15:54:43;2.90;99.90
8093;DHT22;4089;52.420;13.334;2023-11-21T15:57:13;3.00;99.90
8093;DHT22;4089;52.420;13.334;2023-11-21T15:59:41;3.00;99.90
8093;DHT22;4089;52.420;13.334;2023-11-21T16:02:09;3.00;99.90
8093;DHT22;4089;52.420;13.334;2023-11-21T16:04:39;3.00;99.90
8093;DHT22;4089;52.420;13.334;2023-11-21T16:07:10;2.90;99.90
8093;DHT22;4089;52.420;13.334;2023-11-21T16:09:38;2.90;99.90
8093;DHT22;4089;52.420;13.334;2023-11-21T16:12:06;2.90;99.90
8093;DHT22;4089;52.420;13.334;2023-11-21T16:14:35;2.90;99.90
8093;DHT22;4089;52.420;13.334;2023-11-21T16:17:05;2.90;99.90
8093;DHT22;4089;52.420;13.334;2023-11-21T16:19:35;2.80;99.90
8093;DHT22;4089;52.420;13.334;2023-11-21T16:22:02;2.90;99.90
8093;DHT22;4089;52.420;13.334;2023-11-21T16:24:29;2.90;99.90